Whitefish, Montana
Current Conditions -  °F | °C
As of 1:08 AM on Wednesday 26 Nov 2014 (Local Time) from KGPI Reporting Station
Light Snow Light Snow  
Wind Chill: 32°   Ceiling: 2700
Heat Index: 32°   Visibility: 1.2mi
Dew Point: 32°   Wind: 0mph
Humidity: 100%   Direction: NA
Pressure: 30.15"   Gusts: NA
Location:  48.41°N, 114.34°W
Report Text: KGPI 260808Z AUTO 00000KT 1 1/4SM -SN BR FEW003 OVC027 00/00 A3015 RMK AO2 P0000 T00000000
Loading
Personal Weather Stations






























Interactive Weather Map New forecast layout! Learn more

10-Day Weather Forecast

Advertisements
Track Severe Weather on mobile